sensor_id;sensor_type;location;lat;lon;timestamp;pressure;altitude;pressure_sealevel;temperature;humidity
1726;BME280;41776;48.260;8.928;2022-08-04T00:02:38;70499.09;;;-145.69;67.79
1726;BME280;41776;48.260;8.928;2022-08-04T00:05:11;70511.03;;;-145.69;67.49
1726;BME280;41776;48.260;8.928;2022-08-04T00:07:46;70515.00;;;-145.69;66.66
1726;BME280;41776;48.260;8.928;2022-08-04T00:10:16;70515.00;;;-145.69;67.48
1726;BME280;41776;48.260;8.928;2022-08-04T00:12:47;70534.91;;;-145.69;69.04
1726;BME280;41776;48.260;8.928;2022-08-04T00:15:16;70562.75;;;-145.69;69.23
1726;BME280;41776;48.260;8.928;2022-08-04T00:17:45;70570.72;;;-145.69;71.57
1726;BME280;41776;48.260;8.928;2022-08-04T00:20:17;70586.63;;;-145.69;71.42
1726;BME280;41776;48.260;8.928;2022-08-04T00:22:45;70600.56;;;-145.69;73.38
1726;BME280;41776;48.260;8.928;2022-08-04T00:25:12;70606.53;;;-145.69;73.50
1726;BME280;41776;48.260;8.928;2022-08-04T00:27:39;70604.53;;;-145.69;73.62
1726;BME280;41776;48.260;8.928;2022-08-04T00:30:07;70610.50;;;-145.69;73.64
1726;BME280;41776;48.260;8.928;2022-08-04T00:32:33;70612.50;;;-145.69;72.46
1726;BME280;41776;48.260;8.928;2022-08-04T00:35:01;70600.56;;;-145.69;72.31
1726;BME280;41776;48.260;8.928;2022-08-04T00:37:28;70608.53;;;-145.69;72.47
1726;BME280;41776;48.260;8.928;2022-08-04T00:39:55;70606.53;;;-145.69;71.04
1726;BME280;41776;48.260;8.928;2022-08-04T00:42:33;70598.56;;;-145.69;71.61
1726;BME280;41776;48.260;8.928;2022-08-04T00:45:23;70586.63;;;-145.69;70.77
1726;BME280;41776;48.260;8.928;2022-08-04T00:48:02;70576.69;;;-145.69;68.44
1726;BME280;41776;48.260;8.928;2022-08-04T00:50:39;70566.75;;;-145.69;67.55
1726;BME280;41776;48.260;8.928;2022-08-04T00:53:13;70538.88;;;-145.69;65.16
1726;BME280;41776;48.260;8.928;2022-08-04T00:56:01;70524.97;;;-145.69;65.29
1726;BME280;41776;48.260;8.928;2022-08-04T00:58:46;70536.91;;;-145.69;66.68
1726;BME280;41776;48.260;8.928;2022-08-04T01:01:25;70538.88;;;-145.69;67.76
1726;BME280;41776;48.260;8.928;2022-08-04T01:04:01;70546.84;;;-145.69;68.07
1726;BME280;41776;48.260;8.928;2022-08-04T01:06:34;70517.00;;;-145.69;63.79
1726;BME280;41776;48.260;8.928;2022-08-04T01:09:10;70515.00;;;-145.69;64.79
1726;BME280;41776;48.260;8.928;2022-08-04T01:11:48;70530.94;;;-145.69;67.68
1726;BME280;41776;48.260;8.928;2022-08-04T01:14:30;70554.81;;;-145.69;69.96
1726;BME280;41776;48.260;8.928;2022-08-04T01:17:10;70576.69;;;-145.69;70.90
1726;BME280;41776;48.260;8.928;2022-08-04T01:19:53;70588.63;;;-145.69;71.05
1726;BME280;41776;48.260;8.928;2022-08-04T01:25:43;70604.53;;;-145.69;72.02
1726;BME280;41776;48.260;8.928;2022-08-04T01:28:28;70608.53;;;-145.69;72.83
1726;BME280;41776;48.260;8.928;2022-08-04T01:31:02;70590.63;;;-145.69;70.63
1726;BME280;41776;48.260;8.928;2022-08-04T01:33:35;70554.81;;;-145.69;66.29
1726;BME280;41776;48.260;8.928;2022-08-04T01:36:04;70507.06;;;-145.69;62.26
1726;BME280;41776;48.260;8.928;2022-08-04T01:38:34;70487.16;;;-145.69;62.11
1726;BME280;41776;48.260;8.928;2022-08-04T01:41:03;70495.13;;;-145.69;64.69
1726;BME280;41776;48.260;8.928;2022-08-04T01:43:31;70507.06;;;-145.69;63.58
1726;BME280;41776;48.260;8.928;2022-08-04T01:46:01;70515.00;;;-145.69;64.05
1726;BME280;41776;48.260;8.928;2022-08-04T01:48:29;70495.13;;;-145.69;62.18
1726;BME280;41776;48.260;8.928;2022-08-04T01:50:57;70487.16;;;-145.69;61.79
1726;BME280;41776;48.260;8.928;2022-08-04T01:53:29;70471.25;;;-145.69;60.91
1726;BME280;41776;48.260;8.928;2022-08-04T01:55:56;70477.22;;;-145.69;62.34
1726;BME280;41776;48.260;8.928;2022-08-04T01:58:23;70491.13;;;-145.69;63.13
1726;BME280;41776;48.260;8.928;2022-08-04T02:00:55;70503.06;;;-145.69;63.19
1726;BME280;41776;48.260;8.928;2022-08-04T02:03:24;70491.13;;;-145.69;62.91
1726;BME280;41776;48.260;8.928;2022-08-04T02:05:56;70501.09;;;-145.69;63.07
1726;BME280;41776;48.260;8.928;2022-08-04T02:08:41;70499.09;;;-145.69;62.84
1726;BME280;41776;48.260;8.928;2022-08-04T02:11:14;70526.94;;;-145.69;66.31
1726;BME280;41776;48.260;8.928;2022-08-04T02:13:51;70519.00;;;-145.69;64.07
1726;BME280;41776;48.260;8.928;2022-08-04T02:16:24;70503.06;;;-145.69;62.99
1726;BME280;41776;48.260;8.928;2022-08-04T02:19:00;70481.19;;;-145.69;62.44
1726;BME280;41776;48.260;8.928;2022-08-04T02:21:29;70461.31;;;-145.69;61.66
1726;BME280;41776;48.260;8.928;2022-08-04T02:24:02;70455.34;;;-145.69;60.70
1726;BME280;41776;48.260;8.928;2022-08-04T02:26:33;70453.34;;;-145.69;61.71
1726;BME280;41776;48.260;8.928;2022-08-04T02:29:03;70443.41;;;-145.69;60.04
1726;BME280;41776;48.260;8.928;2022-08-04T02:31:38;70441.41;;;-145.69;60.14
1726;BME280;41776;48.260;8.928;2022-08-04T02:34:15;70463.28;;;-145.69;62.76
1726;BME280;41776;48.260;8.928;2022-08-04T02:36:42;70473.22;;;-145.69;62.99
1726;BME280;41776;48.260;8.928;2022-08-04T02:39:10;70483.19;;;-145.69;63.10
1726;BME280;41776;48.260;8.928;2022-08-04T02:41:39;70487.16;;;-145.69;63.35
1726;BME280;41776;48.260;8.928;2022-08-04T02:44:07;70495.13;;;-145.69;64.39
1726;BME280;41776;48.260;8.928;2022-08-04T02:46:35;70526.94;;;-145.69;65.97
1726;BME280;41776;48.260;8.928;2022-08-04T02:49:03;70548.84;;;-145.69;68.48
1726;BME280;41776;48.260;8.928;2022-08-04T02:51:33;70550.81;;;-145.69;68.05
1726;BME280;41776;48.260;8.928;2022-08-04T02:54:02;70556.78;;;-145.69;68.13
1726;BME280;41776;48.260;8.928;2022-08-04T02:56:32;70554.81;;;-145.69;67.63
1726;BME280;41776;48.260;8.928;2022-08-04T02:58:59;70550.81;;;-145.69;68.19
1726;BME280;41776;48.260;8.928;2022-08-04T03:01:26;70542.88;;;-145.69;67.30
1726;BME280;41776;48.260;8.928;2022-08-04T03:04:08;70530.94;;;-145.69;67.57
1726;BME280;41776;48.260;8.928;2022-08-04T03:07:12;70538.88;;;-145.69;67.17
1726;BME280;41776;48.260;8.928;2022-08-04T03:10:00;70538.88;;;-145.69;67.28
1726;BME280;41776;48.260;8.928;2022-08-04T03:12:56;70540.88;;;-145.69;67.65
1726;BME280;41776;48.260;8.928;2022-08-04T03:15:54;70554.81;;;-145.69;67.38
1726;BME280;41776;48.260;8.928;2022-08-04T03:18:38;70544.84;;;-145.69;67.53
1726;BME280;41776;48.260;8.928;2022-08-04T03:21:35;70528.94;;;-145.69;66.43
1726;BME280;41776;48.260;8.928;2022-08-04T03:24:35;70562.75;;;-145.69;70.13
1726;BME280;41776;48.260;8.928;2022-08-04T03:27:11;70574.69;;;-145.69;70.27
1726;BME280;41776;48.260;8.928;2022-08-04T03:30:07;70576.69;;;-145.69;69.72
1726;BME280;41776;48.260;8.928;2022-08-04T03:35:51;70574.69;;;-145.69;69.61
1726;BME280;41776;48.260;8.928;2022-08-04T03:38:58;70616.47;;;-145.69;72.96
1726;BME280;41776;48.260;8.928;2022-08-04T03:41:41;70644.31;;;-145.69;74.78
1726;BME280;41776;48.260;8.928;2022-08-04T03:44:30;70668.19;;;-145.69;76.83
1726;BME280;41776;48.260;8.928;2022-08-04T03:47:27;70630.41;;;-145.69;73.14
1726;BME280;41776;48.260;8.928;2022-08-04T03:50:21;70592.59;;;-145.69;71.26
1726;BME280;41776;48.260;8.928;2022-08-04T03:53:06;70578.69;;;-145.69;69.56
1726;BME280;41776;48.260;8.928;2022-08-04T03:55:43;70554.81;;;-145.69;68.85
1726;BME280;41776;48.260;8.928;2022-08-04T03:58:33;70554.81;;;-145.69;69.49
1726;BME280;41776;48.260;8.928;2022-08-04T04:01:15;70532.91;;;-145.69;67.95
1726;BME280;41776;48.260;8.928;2022-08-04T04:04:07;70526.94;;;-145.69;67.40
1726;BME280;41776;48.260;8.928;2022-08-04T04:06:52;70534.91;;;-145.69;68.79
1726;BME280;41776;48.260;8.928;2022-08-04T04:09:44;70550.81;;;-145.69;69.65
1726;BME280;41776;48.260;8.928;2022-08-04T04:12:34;70550.81;;;-145.69;70.11
1726;BME280;41776;48.260;8.928;2022-08-04T04:15:19;70560.78;;;-145.69;71.02
1726;BME280;41776;48.260;8.928;2022-08-04T04:18:04;70544.84;;;-145.69;69.33
1726;BME280;41776;48.260;8.928;2022-08-04T04:20:57;70507.06;;;-145.69;67.30
1726;BME280;41776;48.260;8.928;2022-08-04T04:23:45;70497.09;;;-145.69;66.37
1726;BME280;41776;48.260;8.928;2022-08-04T04:29:29;70497.09;;;-145.69;66.52
1726;BME280;41776;48.260;8.928;2022-08-04T04:32:08;70499.09;;;-145.69;67.66
1726;BME280;41776;48.260;8.928;2022-08-04T04:34:47;70519.00;;;-145.69;68.84
1726;BME280;41776;48.260;8.928;2022-08-04T04:37:19;70515.00;;;-145.69;68.26
1726;BME280;41776;48.260;8.928;2022-08-04T04:39:59;70501.09;;;-145.69;67.57
1726;BME280;41776;48.260;8.928;2022-08-04T04:42:41;70507.06;;;-145.69;66.70
1726;BME280;41776;48.260;8.928;2022-08-04T04:45:16;70505.06;;;-145.69;68.06
1726;BME280;41776;48.260;8.928;2022-08-04T04:47:54;70511.03;;;-145.69;68.21
1726;BME280;41776;48.260;8.928;2022-08-04T04:50:27;70509.03;;;-145.69;68.19
1726;BME280;41776;48.260;8.928;2022-08-04T04:53:05;70515.00;;;-145.69;68.77
1726;BME280;41776;48.260;8.928;2022-08-04T04:55:40;70515.00;;;-145.69;68.86
1726;BME280;41776;48.260;8.928;2022-08-04T04:58:10;70511.03;;;-145.69;69.42
1726;BME280;41776;48.260;8.928;2022-08-04T05:00:49;70507.06;;;-145.69;69.64
1726;BME280;41776;48.260;8.928;2022-08-04T05:03:32;70520.97;;;-145.69;70.83
1726;BME280;41776;48.260;8.928;2022-08-04T05:06:15;70513.03;;;-145.69;70.75
1726;BME280;41776;48.260;8.928;2022-08-04T05:09:02;70515.00;;;-145.69;71.42
1726;BME280;41776;48.260;8.928;2022-08-04T05:11:44;70507.06;;;-145.69;71.42
1726;BME280;41776;48.260;8.928;2022-08-04T05:14:19;70499.09;;;-145.69;71.57
1726;BME280;41776;48.260;8.928;2022-08-04T05:16:53;70499.09;;;-145.69;70.70
1726;BME280;41776;48.260;8.928;2022-08-04T05:19:29;70487.16;;;-145.69;70.02
1726;BME280;41776;48.260;8.928;2022-08-04T05:22:02;70471.25;;;-145.69;70.58
1726;BME280;41776;48.260;8.928;2022-08-04T05:24:31;70463.28;;;-145.69;69.72
1726;BME280;41776;48.260;8.928;2022-08-04T05:27:03;70455.34;;;-145.69;69.85
1726;BME280;41776;48.260;8.928;2022-08-04T05:29:33;70439.41;;;-145.69;70.90
1726;BME280;41776;48.260;8.928;2022-08-04T05:32:04;70437.44;;;-145.69;69.76
1726;BME280;41776;48.260;8.928;2022-08-04T05:34:38;70433.44;;;-145.69;69.17
1726;BME280;41776;48.260;8.928;2022-08-04T05:37:08;70423.50;;;-145.69;69.98
1726;BME280;41776;48.260;8.928;2022-08-04T05:39:43;70415.53;;;-145.69;68.92
1726;BME280;41776;48.260;8.928;2022-08-04T05:42:11;70403.59;;;-145.69;70.81
1726;BME280;41776;48.260;8.928;2022-08-04T05:44:38;70393.66;;;-145.69;69.60
1726;BME280;41776;48.260;8.928;2022-08-04T05:47:05;70383.72;;;-145.69;69.68
1726;BME280;41776;48.260;8.928;2022-08-04T05:49:34;70371.78;;;-145.69;68.45
1726;BME280;41776;48.260;8.928;2022-08-04T05:52:02;70361.84;;;-145.69;69.21
1726;BME280;41776;48.260;8.928;2022-08-04T05:54:31;70347.91;;;-145.69;68.42
1726;BME280;41776;48.260;8.928;2022-08-04T05:56:58;70339.94;;;-145.69;68.22
1726;BME280;41776;48.260;8.928;2022-08-04T05:59:25;70322.03;;;-145.69;68.36
1726;BME280;41776;48.260;8.928;2022-08-04T06:01:55;70304.13;;;-145.69;67.71
1726;BME280;41776;48.260;8.928;2022-08-04T06:04:24;70280.28;;;-145.69;66.68
1726;BME280;41776;48.260;8.928;2022-08-04T06:06:54;70268.34;;;-145.69;66.68
1726;BME280;41776;48.260;8.928;2022-08-04T06:09:20;70252.41;;;-145.69;66.12
1726;BME280;41776;48.260;8.928;2022-08-04T06:11:48;70240.47;;;-145.69;66.41
1726;BME280;41776;48.260;8.928;2022-08-04T06:14:17;70216.63;;;-145.69;65.55
1726;BME280;41776;48.260;8.928;2022-08-04T06:16:45;70192.75;;;-145.69;64.78
1726;BME280;41776;48.260;8.928;2022-08-04T06:19:12;70178.81;;;-145.69;65.38
1726;BME280;41776;48.260;8.928;2022-08-04T06:21:42;70164.88;;;-145.69;64.73
1726;BME280;41776;48.260;8.928;2022-08-04T06:24:14;70152.97;;;-145.69;65.62
1726;BME280;41776;48.260;8.928;2022-08-04T06:26:43;70119.13;;;-145.69;65.82
1726;BME280;41776;48.260;8.928;2022-08-04T06:29:11;70071.41;;;-145.69;65.21
1726;BME280;41776;48.260;8.928;2022-08-04T06:31:45;70041.56;;;-145.69;63.36
1726;BME280;41776;48.260;8.928;2022-08-04T06:34:24;70011.72;;;-145.69;63.89
1726;BME280;41776;48.260;8.928;2022-08-04T06:36:52;69981.88;;;-145.69;61.37
1726;BME280;41776;48.260;8.928;2022-08-04T06:39:21;69950.06;;;-145.69;62.04
1726;BME280;41776;48.260;8.928;2022-08-04T06:41:49;69926.19;;;-145.69;59.58
1726;BME280;41776;48.260;8.928;2022-08-04T06:44:17;69910.28;;;-145.69;60.16
1726;BME280;41776;48.260;8.928;2022-08-04T06:46:46;69884.41;;;-145.69;59.15
1726;BME280;41776;48.260;8.928;2022-08-04T06:49:13;69886.41;;;-145.69;60.11
1726;BME280;41776;48.260;8.928;2022-08-04T06:51:43;69866.50;;;-145.69;57.86
1726;BME280;41776;48.260;8.928;2022-08-04T06:54:10;69862.53;;;-145.69;56.96
1726;BME280;41776;48.260;8.928;2022-08-04T06:56:38;69836.69;;;-145.69;56.05
1726;BME280;41776;48.260;8.928;2022-08-04T06:59:06;69826.72;;;-145.69;55.84
1726;BME280;41776;48.260;8.928;2022-08-04T07:01:34;69802.88;;;-145.69;55.04
1726;BME280;41776;48.260;8.928;2022-08-04T07:04:02;69782.97;;;-145.69;53.82
1726;BME280;41776;48.260;8.928;2022-08-04T07:06:29;69759.09;;;-145.69;49.63
1726;BME280;41776;48.260;8.928;2022-08-04T07:08:55;69737.22;;;-145.69;51.25
1726;BME280;41776;48.260;8.928;2022-08-04T07:11:22;69721.31;;;-145.69;51.68
1726;BME280;41776;48.260;8.928;2022-08-04T07:13:51;69699.44;;;-145.69;51.49
1726;BME280;41776;48.260;8.928;2022-08-04T07:16:19;69683.53;;;-145.69;46.89
1726;BME280;41776;48.260;8.928;2022-08-04T07:18:47;69657.66;;;-145.69;44.22
1726;BME280;41776;48.260;8.928;2022-08-04T07:21:20;69643.75;;;-145.69;44.70
1726;BME280;41776;48.260;8.928;2022-08-04T07:23:47;69635.78;;;-145.69;43.05
1726;BME280;41776;48.260;8.928;2022-08-04T07:26:14;69613.91;;;-145.69;42.64
1726;BME280;41776;48.260;8.928;2022-08-04T07:28:43;69598.00;;;-145.69;42.41
1726;BME280;41776;48.260;8.928;2022-08-04T07:31:14;69586.06;;;-145.69;42.42
1726;BME280;41776;48.260;8.928;2022-08-04T07:33:41;69582.09;;;-145.69;40.30
1726;BME280;41776;48.260;8.928;2022-08-04T07:36:09;69552.25;;;-145.69;42.62
1726;BME280;41776;48.260;8.928;2022-08-04T07:38:36;69536.34;;;-145.69;41.83
1726;BME280;41776;48.260;8.928;2022-08-04T07:41:03;69542.31;;;-145.69;40.88
1726;BME280;41776;48.260;8.928;2022-08-04T07:43:30;69536.34;;;-145.69;40.22
1726;BME280;41776;48.260;8.928;2022-08-04T07:45:57;69512.47;;;-145.69;39.89
1726;BME280;41776;48.260;8.928;2022-08-04T07:48:25;69512.47;;;-145.69;40.08
1726;BME280;41776;48.260;8.928;2022-08-04T07:50:52;69504.50;;;-145.69;38.83
1726;BME280;41776;48.260;8.928;2022-08-04T07:53:20;69484.63;;;-145.69;38.92
1726;BME280;41776;48.260;8.928;2022-08-04T07:55:48;69474.69;;;-145.69;39.44
1726;BME280;41776;48.260;8.928;2022-08-04T07:58:14;69466.72;;;-145.69;39.12
1726;BME280;41776;48.260;8.928;2022-08-04T08:00:43;69442.84;;;-145.69;40.39
1726;BME280;41776;48.260;8.928;2022-08-04T08:03:11;69436.91;;;-145.69;37.50
1726;BME280;41776;48.260;8.928;2022-08-04T08:05:39;69430.94;;;-145.69;36.60
1726;BME280;41776;48.260;8.928;2022-08-04T08:08:05;69413.03;;;-145.69;37.53
1726;BME280;41776;48.260;8.928;2022-08-04T08:10:32;69393.13;;;-145.69;36.60
1726;BME280;41776;48.260;8.928;2022-08-04T08:12:59;69387.16;;;-145.69;36.30
1726;BME280;41776;48.260;8.928;2022-08-04T08:15:25;69383.19;;;-145.69;36.86
1726;BME280;41776;48.260;8.928;2022-08-04T08:17:52;69365.28;;;-145.69;37.16
1726;BME280;41776;48.260;8.928;2022-08-04T08:20:18;69371.25;;;-145.69;37.75
1726;BME280;41776;48.260;8.928;2022-08-04T08:22:47;69377.22;;;-145.69;37.32
1726;BME280;41776;48.260;8.928;2022-08-04T08:25:13;69349.38;;;-145.69;40.14
1726;BME280;41776;48.260;8.928;2022-08-04T08:27:40;69327.50;;;-145.69;37.52
1726;BME280;41776;48.260;8.928;2022-08-04T08:30:07;69325.53;;;-145.69;35.90
1726;BME280;41776;48.260;8.928;2022-08-04T08:32:34;69327.50;;;-145.69;35.62
1726;BME280;41776;48.260;8.928;2022-08-04T08:35:00;69325.53;;;-145.69;36.37
1726;BME280;41776;48.260;8.928;2022-08-04T08:37:32;69313.59;;;-145.69;36.00
1726;BME280;41776;48.260;8.928;2022-08-04T08:40:15;69341.44;;;-145.69;35.61
1726;BME280;41776;48.260;8.928;2022-08-04T08:42:54;69343.41;;;-145.69;34.80
1726;BME280;41776;48.260;8.928;2022-08-04T08:48:54;69367.28;;;-145.69;35.46
1726;BME280;41776;48.260;8.928;2022-08-04T08:51:43;69381.19;;;-145.69;36.04
1726;BME280;41776;48.260;8.928;2022-08-04T08:54:30;69357.34;;;-145.69;35.59
1726;BME280;41776;48.260;8.928;2022-08-04T08:57:15;69349.38;;;-145.69;35.57
1726;BME280;41776;48.260;8.928;2022-08-04T08:59:55;69329.50;;;-145.69;36.01
1726;BME280;41776;48.260;8.928;2022-08-04T09:02:45;69329.50;;;-145.69;36.17
1726;BME280;41776;48.260;8.928;2022-08-04T09:05:28;69323.53;;;-145.69;37.20
1726;BME280;41776;48.260;8.928;2022-08-04T09:08:18;69309.59;;;-145.69;36.29
1726;BME280;41776;48.260;8.928;2022-08-04T09:10:50;69291.72;;;-145.69;34.76
1726;BME280;41776;48.260;8.928;2022-08-04T09:13:24;69269.81;;;-145.69;35.45
1726;BME280;41776;48.260;8.928;2022-08-04T09:15:56;69281.75;;;-145.69;34.85
1726;BME280;41776;48.260;8.928;2022-08-04T09:18:27;69267.84;;;-145.69;34.93
1726;BME280;41776;48.260;8.928;2022-08-04T09:21:01;69265.84;;;-145.69;35.40
1726;BME280;41776;48.260;8.928;2022-08-04T09:23:35;69263.88;;;-145.69;36.81
1726;BME280;41776;48.260;8.928;2022-08-04T09:26:08;69269.81;;;-145.69;34.83
1726;BME280;41776;48.260;8.928;2022-08-04T09:28:44;69351.38;;;-145.69;34.42
1726;BME280;41776;48.260;8.928;2022-08-04T09:31:15;69359.31;;;-145.69;34.95
1726;BME280;41776;48.260;8.928;2022-08-04T09:33:48;69341.44;;;-145.69;36.05
1726;BME280;41776;48.260;8.928;2022-08-04T09:36:26;69337.44;;;-145.69;37.05
1726;BME280;41776;48.260;8.928;2022-08-04T09:39:05;69349.38;;;-145.69;35.00
1726;BME280;41776;48.260;8.928;2022-08-04T09:41:39;69323.53;;;-145.69;34.87
1726;BME280;41776;48.260;8.928;2022-08-04T09:44:16;69271.81;;;-145.69;37.39
1726;BME280;41776;48.260;8.928;2022-08-04T09:46:49;69265.84;;;-145.69;35.99
1726;BME280;41776;48.260;8.928;2022-08-04T09:49:20;69265.84;;;-145.69;35.96
1726;BME280;41776;48.260;8.928;2022-08-04T09:51:56;69242.00;;;-145.69;36.21
1726;BME280;41776;48.260;8.928;2022-08-04T09:54:27;69214.16;;;-145.69;35.84
1726;BME280;41776;48.260;8.928;2022-08-04T09:57:04;69240.00;;;-145.69;35.03
1726;BME280;41776;48.260;8.928;2022-08-04T09:59:40;69206.19;;;-145.69;34.72
1726;BME280;41776;48.260;8.928;2022-08-04T10:02:12;69202.22;;;-145.69;35.13
1726;BME280;41776;48.260;8.928;2022-08-04T10:04:41;69182.31;;;-145.69;35.58
1726;BME280;41776;48.260;8.928;2022-08-04T10:07:18;69186.31;;;-145.69;35.37
1726;BME280;41776;48.260;8.928;2022-08-04T10:10:00;69202.22;;;-145.69;33.91
1726;BME280;41776;48.260;8.928;2022-08-04T10:12:34;69188.28;;;-145.69;35.64
1726;BME280;41776;48.260;8.928;2022-08-04T10:15:16;69174.38;;;-145.69;34.60
1726;BME280;41776;48.260;8.928;2022-08-04T10:17:58;69200.22;;;-145.69;33.31
1726;BME280;41776;48.260;8.928;2022-08-04T10:20:47;69208.19;;;-145.69;34.25
1726;BME280;41776;48.260;8.928;2022-08-04T10:23:30;69226.06;;;-145.69;33.13
1726;BME280;41776;48.260;8.928;2022-08-04T10:26:04;69194.25;;;-145.69;33.71
1726;BME280;41776;48.260;8.928;2022-08-04T10:28:37;69184.31;;;-145.69;32.76
1726;BME280;41776;48.260;8.928;2022-08-04T10:31:11;69198.22;;;-145.69;35.31
1726;BME280;41776;48.260;8.928;2022-08-04T10:33:42;69222.09;;;-145.69;33.36
1726;BME280;41776;48.260;8.928;2022-08-04T10:36:11;69194.25;;;-145.69;32.62
1726;BME280;41776;48.260;8.928;2022-08-04T10:38:49;69146.53;;;-145.69;31.36
1726;BME280;41776;48.260;8.928;2022-08-04T10:41:25;69110.72;;;-145.69;32.32
1726;BME280;41776;48.260;8.928;2022-08-04T10:44:00;69118.69;;;-145.69;30.89
1726;BME280;41776;48.260;8.928;2022-08-04T10:46:35;69150.50;;;-145.69;30.52
1726;BME280;41776;48.260;8.928;2022-08-04T10:49:04;69210.16;;;-145.69;30.83
1726;BME280;41776;48.260;8.928;2022-08-04T10:51:34;69245.97;;;-145.69;32.41
1726;BME280;41776;48.260;8.928;2022-08-04T10:54:05;69269.81;;;-145.69;32.02
1726;BME280;41776;48.260;8.928;2022-08-04T10:56:35;69243.97;;;-145.69;31.06
1726;BME280;41776;48.260;8.928;2022-08-04T10:59:09;69194.25;;;-145.69;31.09
1726;BME280;41776;48.260;8.928;2022-08-04T11:01:39;69170.38;;;-145.69;30.78
1726;BME280;41776;48.260;8.928;2022-08-04T11:04:13;69138.56;;;-145.69;30.12
1726;BME280;41776;48.260;8.928;2022-08-04T11:06:42;69094.81;;;-145.69;31.11
1726;BME280;41776;48.260;8.928;2022-08-04T11:09:09;69094.81;;;-145.69;32.08
1726;BME280;41776;48.260;8.928;2022-08-04T11:11:38;69059.03;;;-145.69;31.20
1726;BME280;41776;48.260;8.928;2022-08-04T11:14:10;69003.34;;;-145.69;30.73
1726;BME280;41776;48.260;8.928;2022-08-04T11:16:41;69019.25;;;-145.69;29.75
1726;BME280;41776;48.260;8.928;2022-08-04T11:19:18;69003.34;;;-145.69;29.23
1726;BME280;41776;48.260;8.928;2022-08-04T11:21:52;69009.31;;;-145.69;28.20
1726;BME280;41776;48.260;8.928;2022-08-04T11:24:24;69025.22;;;-145.69;28.78
1726;BME280;41776;48.260;8.928;2022-08-04T11:26:55;68997.38;;;-145.69;28.97
1726;BME280;41776;48.260;8.928;2022-08-04T11:29:26;68987.44;;;-145.69;29.00
1726;BME280;41776;48.260;8.928;2022-08-04T11:31:58;68937.72;;;-145.69;28.91
1726;BME280;41776;48.260;8.928;2022-08-04T11:34:26;68947.66;;;-145.69;27.98
1726;BME280;41776;48.260;8.928;2022-08-04T11:36:58;68923.78;;;-145.69;30.32
1726;BME280;41776;48.260;8.928;2022-08-04T11:39:29;68905.91;;;-145.69;28.75
1726;BME280;41776;48.260;8.928;2022-08-04T11:42:06;68909.88;;;-145.69;28.41
1726;BME280;41776;48.260;8.928;2022-08-04T11:44:42;68890.00;;;-145.69;28.92
1726;BME280;41776;48.260;8.928;2022-08-04T11:47:20;68854.19;;;-145.69;28.71
1726;BME280;41776;48.260;8.928;2022-08-04T11:49:53;68840.28;;;-145.69;28.13
1726;BME280;41776;48.260;8.928;2022-08-04T11:52:21;68852.19;;;-145.69;29.62
1726;BME280;41776;48.260;8.928;2022-08-04T11:54:49;68858.16;;;-145.69;30.13
1726;BME280;41776;48.260;8.928;2022-08-04T11:57:16;68840.28;;;-145.69;28.63
1726;BME280;41776;48.260;8.928;2022-08-04T11:59:44;68878.06;;;-145.69;29.45
1726;BME280;41776;48.260;8.928;2022-08-04T12:02:32;68907.88;;;-145.69;28.13
1726;BME280;41776;48.260;8.928;2022-08-04T12:05:06;68870.09;;;-145.69;28.79
1726;BME280;41776;48.260;8.928;2022-08-04T12:07:42;68840.28;;;-145.69;28.40
1726;BME280;41776;48.260;8.928;2022-08-04T12:10:17;68886.00;;;-145.69;28.48
1726;BME280;41776;48.260;8.928;2022-08-04T12:12:54;68888.00;;;-145.69;28.17
1726;BME280;41776;48.260;8.928;2022-08-04T12:15:28;68911.88;;;-145.69;27.42
1726;BME280;41776;48.260;8.928;2022-08-04T12:18:05;68923.78;;;-145.69;27.60
1726;BME280;41776;48.260;8.928;2022-08-04T12:20:39;68854.19;;;-145.69;28.74
1726;BME280;41776;48.260;8.928;2022-08-04T12:23:17;68943.69;;;-145.69;28.04
1726;BME280;41776;48.260;8.928;2022-08-04T12:25:47;68907.88;;;-145.69;28.34
1726;BME280;41776;48.260;8.928;2022-08-04T12:28:20;68834.31;;;-145.69;27.65
1726;BME280;41776;48.260;8.928;2022-08-04T12:30:51;68824.38;;;-145.69;28.58
1726;BME280;41776;48.260;8.928;2022-08-04T12:33:26;68772.66;;;-145.69;27.46
1726;BME280;41776;48.260;8.928;2022-08-04T12:35:58;68772.66;;;-145.69;27.82
1726;BME280;41776;48.260;8.928;2022-08-04T12:38:31;68812.44;;;-145.69;26.74
1726;BME280;41776;48.260;8.928;2022-08-04T12:40:59;68778.63;;;-145.69;27.21
1726;BME280;41776;48.260;8.928;2022-08-04T12:43:34;68752.78;;;-145.69;28.22
1726;BME280;41776;48.260;8.928;2022-08-04T12:46:04;68816.41;;;-145.69;27.87
1726;BME280;41776;48.260;8.928;2022-08-04T12:48:35;68804.47;;;-145.69;27.46
1726;BME280;41776;48.260;8.928;2022-08-04T12:51:06;68778.63;;;-145.69;26.79
1726;BME280;41776;48.260;8.928;2022-08-04T12:53:36;68724.94;;;-145.69;26.86
1726;BME280;41776;48.260;8.928;2022-08-04T12:56:04;68667.28;;;-145.69;27.16
1726;BME280;41776;48.260;8.928;2022-08-04T12:58:36;68651.34;;;-145.69;27.92
1726;BME280;41776;48.260;8.928;2022-08-04T13:01:05;68589.72;;;-145.69;28.40
1726;BME280;41776;48.260;8.928;2022-08-04T13:03:39;68545.97;;;-145.69;26.91
1726;BME280;41776;48.260;8.928;2022-08-04T13:06:07;68545.97;;;-145.69;27.44
1726;BME280;41776;48.260;8.928;2022-08-04T13:08:38;68577.78;;;-145.69;27.49
1726;BME280;41776;48.260;8.928;2022-08-04T13:11:06;68583.75;;;-145.69;26.82
1726;BME280;41776;48.260;8.928;2022-08-04T13:13:36;68603.63;;;-145.69;27.65
1726;BME280;41776;48.260;8.928;2022-08-04T13:16:06;68549.94;;;-145.69;26.22
1726;BME280;41776;48.260;8.928;2022-08-04T13:18:34;68528.06;;;-145.69;26.33
1726;BME280;41776;48.260;8.928;2022-08-04T13:21:11;68444.56;;;-145.69;26.56
1726;BME280;41776;48.260;8.928;2022-08-04T13:23:40;68303.38;;;-145.69;26.21
1726;BME280;41776;48.260;8.928;2022-08-04T13:26:07;68074.75;;;-145.69;25.26
1726;BME280;41776;48.260;8.928;2022-08-04T13:28:37;67949.47;;;-145.69;23.80
1726;BME280;41776;48.260;8.928;2022-08-04T13:31:06;67752.66;;;-145.69;23.31
1726;BME280;41776;48.260;8.928;2022-08-04T13:33:34;67667.19;;;-145.69;22.45
1726;BME280;41776;48.260;8.928;2022-08-04T13:36:02;67832.19;;;-145.69;22.74
1726;BME280;41776;48.260;8.928;2022-08-04T13:38:30;67965.38;;;-145.69;23.52